sensor_id;sensor_type;location;lat;lon;timestamp;P1;durP1;ratioP1;P2;durP2;ratioP2
19651;SDS011;9974;52.146;14.668;2022-07-29T00:00:02;3.22;;;2.28;;
19651;SDS011;9974;52.146;14.668;2022-07-29T00:02:30;5.65;;;2.35;;
19651;SDS011;9974;52.146;14.668;2022-07-29T00:04:56;10.57;;;2.58;;
19651;SDS011;9974;52.146;14.668;2022-07-29T00:07:23;11.75;;;2.50;;
19651;SDS011;9974;52.146;14.668;2022-07-29T00:09:49;9.18;;;3.17;;
19651;SDS011;9974;52.146;14.668;2022-07-29T00:12:15;5.05;;;2.53;;
19651;SDS011;9974;52.146;14.668;2022-07-29T00:14:40;5.85;;;1.77;;
19651;SDS011;9974;52.146;14.668;2022-07-29T00:17:06;9.00;;;2.15;;
19651;SDS011;9974;52.146;14.668;2022-07-29T00:19:32;6.20;;;2.33;;
19651;SDS011;9974;52.146;14.668;2022-07-29T00:21:59;5.15;;;2.13;;
19651;SDS011;9974;52.146;14.668;2022-07-29T00:24:25;4.20;;;2.00;;
19651;SDS011;9974;52.146;14.668;2022-07-29T00:26:51;5.75;;;2.53;;
19651;SDS011;9974;52.146;14.668;2022-07-29T00:29:17;4.53;;;2.33;;
19651;SDS011;9974;52.146;14.668;2022-07-29T00:31:43;5.38;;;1.77;;
19651;SDS011;9974;52.146;14.668;2022-07-29T00:34:09;7.78;;;2.63;;
19651;SDS011;9974;52.146;14.668;2022-07-29T00:36:55;3.60;;;1.88;;
19651;SDS011;9974;52.146;14.668;2022-07-29T00:39:21;6.07;;;2.05;;
19651;SDS011;9974;52.146;14.668;2022-07-29T00:41:47;8.18;;;2.92;;
19651;SDS011;9974;52.146;14.668;2022-07-29T00:44:14;5.53;;;2.60;;
19651;SDS011;9974;52.146;14.668;2022-07-29T00:46:40;3.20;;;2.03;;
19651;SDS011;9974;52.146;14.668;2022-07-29T00:49:06;3.72;;;2.22;;
19651;SDS011;9974;52.146;14.668;2022-07-29T00:51:32;3.65;;;2.30;;
19651;SDS011;9974;52.146;14.668;2022-07-29T00:54:01;6.40;;;2.58;;
19651;SDS011;9974;52.146;14.668;2022-07-29T00:56:31;5.88;;;2.25;;
19651;SDS011;9974;52.146;14.668;2022-07-29T00:58:58;6.78;;;2.70;;
19651;SDS011;9974;52.146;14.668;2022-07-29T01:01:25;12.73;;;2.30;;
19651;SDS011;9974;52.146;14.668;2022-07-29T01:03:51;7.45;;;3.08;;
19651;SDS011;9974;52.146;14.668;2022-07-29T01:06:18;6.30;;;2.80;;
19651;SDS011;9974;52.146;14.668;2022-07-29T01:08:44;5.50;;;2.42;;
19651;SDS011;9974;52.146;14.668;2022-07-29T01:11:12;5.82;;;2.55;;
19651;SDS011;9974;52.146;14.668;2022-07-29T01:13:37;6.20;;;3.05;;
19651;SDS011;9974;52.146;14.668;2022-07-29T01:16:07;4.75;;;2.40;;
19651;SDS011;9974;52.146;14.668;2022-07-29T01:18:42;11.85;;;3.42;;
19651;SDS011;9974;52.146;14.668;2022-07-29T01:21:37;9.88;;;2.95;;
19651;SDS011;9974;52.146;14.668;2022-07-29T01:24:25;7.53;;;2.70;;
19651;SDS011;9974;52.146;14.668;2022-07-29T01:27:13;3.88;;;2.20;;
19651;SDS011;9974;52.146;14.668;2022-07-29T01:29:58;5.95;;;2.53;;
19651;SDS011;9974;52.146;14.668;2022-07-29T01:32:28;7.10;;;2.50;;
19651;SDS011;9974;52.146;14.668;2022-07-29T01:35:02;4.00;;;2.30;;
19651;SDS011;9974;52.146;14.668;2022-07-29T01:38:00;4.30;;;2.75;;
19651;SDS011;9974;52.146;14.668;2022-07-29T01:41:09;6.43;;;2.78;;
19651;SDS011;9974;52.146;14.668;2022-07-29T01:43:31;5.57;;;2.83;;
19651;SDS011;9974;52.146;14.668;2022-07-29T01:46:05;7.03;;;3.08;;
19651;SDS011;9974;52.146;14.668;2022-07-29T01:48:40;6.53;;;2.47;;
19651;SDS011;9974;52.146;14.668;2022-07-29T01:51:14;7.47;;;3.03;;
19651;SDS011;9974;52.146;14.668;2022-07-29T01:53:50;11.10;;;3.20;;
19651;SDS011;9974;52.146;14.668;2022-07-29T01:56:27;6.47;;;2.70;;
19651;SDS011;9974;52.146;14.668;2022-07-29T01:58:55;4.80;;;2.70;;
19651;SDS011;9974;52.146;14.668;2022-07-29T02:01:23;5.25;;;2.92;;
19651;SDS011;9974;52.146;14.668;2022-07-29T02:03:49;6.60;;;2.55;;
19651;SDS011;9974;52.146;14.668;2022-07-29T02:06:19;5.07;;;2.42;;
19651;SDS011;9974;52.146;14.668;2022-07-29T02:08:46;9.80;;;3.00;;
19651;SDS011;9974;52.146;14.668;2022-07-29T02:11:14;9.15;;;3.08;;
19651;SDS011;9974;52.146;14.668;2022-07-29T02:13:39;6.40;;;2.75;;
19651;SDS011;9974;52.146;14.668;2022-07-29T02:16:07;4.97;;;2.85;;
19651;SDS011;9974;52.146;14.668;2022-07-29T02:18:35;8.65;;;2.90;;
19651;SDS011;9974;52.146;14.668;2022-07-29T02:21:03;9.27;;;3.45;;
19651;SDS011;9974;52.146;14.668;2022-07-29T02:23:30;6.90;;;2.72;;
19651;SDS011;9974;52.146;14.668;2022-07-29T02:25:59;9.20;;;2.72;;
19651;SDS011;9974;52.146;14.668;2022-07-29T02:28:27;6.18;;;2.60;;
19651;SDS011;9974;52.146;14.668;2022-07-29T02:30:55;3.97;;;2.50;;
19651;SDS011;9974;52.146;14.668;2022-07-29T02:33:25;7.25;;;3.03;;
19651;SDS011;9974;52.146;14.668;2022-07-29T02:35:53;4.80;;;2.97;;
19651;SDS011;9974;52.146;14.668;2022-07-29T02:38:20;8.10;;;2.67;;
19651;SDS011;9974;52.146;14.668;2022-07-29T02:41:07;3.28;;;2.50;;
19651;SDS011;9974;52.146;14.668;2022-07-29T02:43:36;7.07;;;3.35;;
19651;SDS011;9974;52.146;14.668;2022-07-29T02:46:04;8.90;;;3.10;;
19651;SDS011;9974;52.146;14.668;2022-07-29T02:48:45;5.25;;;2.80;;
19651;SDS011;9974;52.146;14.668;2022-07-29T02:51:19;6.78;;;3.33;;
19651;SDS011;9974;52.146;14.668;2022-07-29T02:53:51;5.55;;;3.40;;
19651;SDS011;9974;52.146;14.668;2022-07-29T02:56:21;6.40;;;2.95;;
19651;SDS011;9974;52.146;14.668;2022-07-29T02:58:57;9.23;;;3.30;;
19651;SDS011;9974;52.146;14.668;2022-07-29T03:01:29;6.25;;;3.17;;
19651;SDS011;9974;52.146;14.668;2022-07-29T03:03:59;4.50;;;3.00;;
19651;SDS011;9974;52.146;14.668;2022-07-29T03:06:28;5.18;;;3.17;;
19651;SDS011;9974;52.146;14.668;2022-07-29T03:08:55;7.50;;;4.00;;
19651;SDS011;9974;52.146;14.668;2022-07-29T03:11:24;6.93;;;2.95;;
19651;SDS011;9974;52.146;14.668;2022-07-29T03:13:50;6.95;;;3.47;;
19651;SDS011;9974;52.146;14.668;2022-07-29T03:16:18;6.30;;;2.97;;
19651;SDS011;9974;52.146;14.668;2022-07-29T03:18:44;8.88;;;3.92;;
19651;SDS011;9974;52.146;14.668;2022-07-29T03:21:10;5.55;;;3.25;;
19651;SDS011;9974;52.146;14.668;2022-07-29T03:23:35;6.95;;;3.83;;
19651;SDS011;9974;52.146;14.668;2022-07-29T03:26:02;7.03;;;3.30;;
19651;SDS011;9974;52.146;14.668;2022-07-29T03:28:28;8.32;;;2.67;;
19651;SDS011;9974;52.146;14.668;2022-07-29T03:30:54;5.75;;;2.88;;
19651;SDS011;9974;52.146;14.668;2022-07-29T03:33:20;7.20;;;3.35;;
19651;SDS011;9974;52.146;14.668;2022-07-29T03:35:47;6.45;;;3.25;;
19651;SDS011;9974;52.146;14.668;2022-07-29T03:38:13;6.57;;;3.10;;
19651;SDS011;9974;52.146;14.668;2022-07-29T03:43:15;10.50;;;3.92;;
19651;SDS011;9974;52.146;14.668;2022-07-29T03:45:42;11.68;;;4.07;;
19651;SDS011;9974;52.146;14.668;2022-07-29T03:48:14;13.07;;;3.28;;
19651;SDS011;9974;52.146;14.668;2022-07-29T03:50:43;10.43;;;3.50;;
19651;SDS011;9974;52.146;14.668;2022-07-29T03:53:09;10.00;;;4.15;;
19651;SDS011;9974;52.146;14.668;2022-07-29T03:55:37;13.45;;;4.65;;
19651;SDS011;9974;52.146;14.668;2022-07-29T03:58:08;13.10;;;3.72;;
19651;SDS011;9974;52.146;14.668;2022-07-29T04:00:35;10.23;;;3.50;;
19651;SDS011;9974;52.146;14.668;2022-07-29T04:03:02;17.90;;;3.70;;
19651;SDS011;9974;52.146;14.668;2022-07-29T04:05:29;23.92;;;3.45;;
19651;SDS011;9974;52.146;14.668;2022-07-29T04:07:55;10.07;;;3.30;;
19651;SDS011;9974;52.146;14.668;2022-07-29T04:10:21;5.13;;;2.78;;
19651;SDS011;9974;52.146;14.668;2022-07-29T04:12:48;10.95;;;3.42;;
19651;SDS011;9974;52.146;14.668;2022-07-29T04:15:14;10.60;;;3.38;;
19651;SDS011;9974;52.146;14.668;2022-07-29T04:17:40;10.50;;;2.88;;
19651;SDS011;9974;52.146;14.668;2022-07-29T04:20:05;5.95;;;3.20;;
19651;SDS011;9974;52.146;14.668;2022-07-29T04:22:32;6.45;;;2.25;;
19651;SDS011;9974;52.146;14.668;2022-07-29T04:24:58;10.70;;;3.13;;
19651;SDS011;9974;52.146;14.668;2022-07-29T04:27:24;4.90;;;2.28;;
19651;SDS011;9974;52.146;14.668;2022-07-29T04:29:50;5.13;;;2.28;;
19651;SDS011;9974;52.146;14.668;2022-07-29T04:32:16;15.63;;;2.53;;
19651;SDS011;9974;52.146;14.668;2022-07-29T04:34:42;5.63;;;2.90;;
19651;SDS011;9974;52.146;14.668;2022-07-29T04:37:10;4.97;;;2.30;;
19651;SDS011;9974;52.146;14.668;2022-07-29T04:39:36;5.82;;;2.10;;
19651;SDS011;9974;52.146;14.668;2022-07-29T04:42:02;5.28;;;2.33;;
19651;SDS011;9974;52.146;14.668;2022-07-29T04:44:28;8.30;;;2.30;;
19651;SDS011;9974;52.146;14.668;2022-07-29T04:46:53;6.28;;;2.42;;
19651;SDS011;9974;52.146;14.668;2022-07-29T04:49:19;5.63;;;2.90;;
19651;SDS011;9974;52.146;14.668;2022-07-29T04:51:45;5.35;;;3.00;;
19651;SDS011;9974;52.146;14.668;2022-07-29T04:54:11;4.45;;;2.30;;
19651;SDS011;9974;52.146;14.668;2022-07-29T04:56:37;3.58;;;2.05;;
19651;SDS011;9974;52.146;14.668;2022-07-29T04:59:03;12.73;;;2.47;;
19651;SDS011;9974;52.146;14.668;2022-07-29T05:01:28;4.95;;;2.50;;
19651;SDS011;9974;52.146;14.668;2022-07-29T05:03:54;8.35;;;2.60;;
19651;SDS011;9974;52.146;14.668;2022-07-29T05:06:20;12.02;;;2.97;;
19651;SDS011;9974;52.146;14.668;2022-07-29T05:08:46;7.90;;;2.83;;
19651;SDS011;9974;52.146;14.668;2022-07-29T05:11:11;10.93;;;3.03;;
19651;SDS011;9974;52.146;14.668;2022-07-29T05:13:38;9.00;;;3.53;;
19651;SDS011;9974;52.146;14.668;2022-07-29T05:16:04;23.00;;;3.80;;
19651;SDS011;9974;52.146;14.668;2022-07-29T05:18:30;19.65;;;4.72;;
19651;SDS011;9974;52.146;14.668;2022-07-29T05:20:56;16.45;;;4.53;;
19651;SDS011;9974;52.146;14.668;2022-07-29T05:23:21;20.77;;;4.72;;
19651;SDS011;9974;52.146;14.668;2022-07-29T05:25:47;10.98;;;3.55;;
19651;SDS011;9974;52.146;14.668;2022-07-29T05:28:15;8.73;;;3.40;;
19651;SDS011;9974;52.146;14.668;2022-07-29T05:30:40;14.98;;;4.25;;
19651;SDS011;9974;52.146;14.668;2022-07-29T05:33:06;10.40;;;3.42;;
19651;SDS011;9974;52.146;14.668;2022-07-29T05:35:32;13.25;;;3.97;;
19651;SDS011;9974;52.146;14.668;2022-07-29T05:37:59;12.77;;;3.55;;
19651;SDS011;9974;52.146;14.668;2022-07-29T05:40:25;6.43;;;3.65;;
19651;SDS011;9974;52.146;14.668;2022-07-29T05:42:51;11.40;;;3.75;;
19651;SDS011;9974;52.146;14.668;2022-07-29T05:45:17;7.95;;;3.60;;
19651;SDS011;9974;52.146;14.668;2022-07-29T05:47:43;9.57;;;3.47;;
19651;SDS011;9974;52.146;14.668;2022-07-29T05:50:09;7.80;;;3.70;;
19651;SDS011;9974;52.146;14.668;2022-07-29T05:52:35;13.15;;;4.20;;
19651;SDS011;9974;52.146;14.668;2022-07-29T05:55:01;10.63;;;3.35;;
19651;SDS011;9974;52.146;14.668;2022-07-29T05:57:29;15.10;;;3.95;;
19651;SDS011;9974;52.146;14.668;2022-07-29T05:59:54;7.60;;;3.13;;
19651;SDS011;9974;52.146;14.668;2022-07-29T06:02:20;7.38;;;3.78;;
19651;SDS011;9974;52.146;14.668;2022-07-29T06:04:46;8.25;;;3.50;;
19651;SDS011;9974;52.146;14.668;2022-07-29T06:07:13;11.27;;;3.72;;
19651;SDS011;9974;52.146;14.668;2022-07-29T06:09:39;12.18;;;3.13;;
19651;SDS011;9974;52.146;14.668;2022-07-29T06:12:04;12.00;;;3.13;;
19651;SDS011;9974;52.146;14.668;2022-07-29T06:14:30;14.10;;;2.90;;
19651;SDS011;9974;52.146;14.668;2022-07-29T06:16:57;7.18;;;3.15;;
19651;SDS011;9974;52.146;14.668;2022-07-29T06:19:23;17.02;;;3.42;;
19651;SDS011;9974;52.146;14.668;2022-07-29T06:21:49;16.55;;;3.70;;
19651;SDS011;9974;52.146;14.668;2022-07-29T06:24:15;8.57;;;2.95;;
19651;SDS011;9974;52.146;14.668;2022-07-29T06:26:41;10.02;;;2.53;;
19651;SDS011;9974;52.146;14.668;2022-07-29T06:29:07;11.25;;;3.05;;
19651;SDS011;9974;52.146;14.668;2022-07-29T06:31:35;17.38;;;3.83;;
19651;SDS011;9974;52.146;14.668;2022-07-29T06:34:02;5.05;;;2.58;;
19651;SDS011;9974;52.146;14.668;2022-07-29T06:36:28;13.10;;;2.80;;
19651;SDS011;9974;52.146;14.668;2022-07-29T06:38:54;14.15;;;2.53;;
19651;SDS011;9974;52.146;14.668;2022-07-29T06:41:20;9.75;;;2.40;;
19651;SDS011;9974;52.146;14.668;2022-07-29T06:43:47;11.80;;;2.90;;
19651;SDS011;9974;52.146;14.668;2022-07-29T06:46:14;4.10;;;1.92;;
19651;SDS011;9974;52.146;14.668;2022-07-29T06:48:46;14.50;;;2.63;;
19651;SDS011;9974;52.146;14.668;2022-07-29T06:51:14;4.43;;;2.00;;
19651;SDS011;9974;52.146;14.668;2022-07-29T06:53:41;4.32;;;2.28;;
19651;SDS011;9974;52.146;14.668;2022-07-29T06:56:07;9.98;;;2.15;;
19651;SDS011;9974;52.146;14.668;2022-07-29T06:58:34;6.15;;;2.08;;
19651;SDS011;9974;52.146;14.668;2022-07-29T07:01:01;7.68;;;2.03;;
19651;SDS011;9974;52.146;14.668;2022-07-29T07:03:29;10.98;;;3.17;;
19651;SDS011;9974;52.146;14.668;2022-07-29T07:05:56;3.60;;;2.05;;
19651;SDS011;9974;52.146;14.668;2022-07-29T07:08:22;4.80;;;1.90;;
19651;SDS011;9974;52.146;14.668;2022-07-29T07:10:48;8.25;;;1.88;;
19651;SDS011;9974;52.146;14.668;2022-07-29T07:13:15;6.75;;;1.85;;
19651;SDS011;9974;52.146;14.668;2022-07-29T07:15:42;5.40;;;1.75;;
19651;SDS011;9974;52.146;14.668;2022-07-29T07:18:09;5.78;;;2.20;;
19651;SDS011;9974;52.146;14.668;2022-07-29T07:20:35;5.30;;;2.22;;
19651;SDS011;9974;52.146;14.668;2022-07-29T07:23:01;4.93;;;2.15;;
19651;SDS011;9974;52.146;14.668;2022-07-29T07:25:28;5.50;;;2.13;;
19651;SDS011;9974;52.146;14.668;2022-07-29T07:27:53;6.53;;;2.25;;
19651;SDS011;9974;52.146;14.668;2022-07-29T07:30:19;3.95;;;1.95;;
19651;SDS011;9974;52.146;14.668;2022-07-29T07:32:46;9.20;;;2.42;;
19651;SDS011;9974;52.146;14.668;2022-07-29T07:35:11;4.93;;;2.03;;
19651;SDS011;9974;52.146;14.668;2022-07-29T07:37:38;5.07;;;1.73;;
19651;SDS011;9974;52.146;14.668;2022-07-29T07:40:05;4.25;;;1.95;;
19651;SDS011;9974;52.146;14.668;2022-07-29T07:42:33;7.32;;;2.78;;
19651;SDS011;9974;52.146;14.668;2022-07-29T07:44:59;10.13;;;2.10;;
19651;SDS011;9974;52.146;14.668;2022-07-29T07:47:25;3.38;;;1.90;;
19651;SDS011;9974;52.146;14.668;2022-07-29T07:49:51;7.95;;;2.13;;
19651;SDS011;9974;52.146;14.668;2022-07-29T07:52:18;4.35;;;1.90;;
19651;SDS011;9974;52.146;14.668;2022-07-29T07:54:46;6.68;;;2.03;;
19651;SDS011;9974;52.146;14.668;2022-07-29T07:57:12;7.35;;;2.00;;
19651;SDS011;9974;52.146;14.668;2022-07-29T07:59:39;5.20;;;1.95;;
19651;SDS011;9974;52.146;14.668;2022-07-29T08:02:05;7.68;;;2.33;;
19651;SDS011;9974;52.146;14.668;2022-07-29T08:04:31;4.68;;;1.92;;
19651;SDS011;9974;52.146;14.668;2022-07-29T08:06:58;3.95;;;2.10;;
19651;SDS011;9974;52.146;14.668;2022-07-29T08:09:24;6.03;;;1.92;;
19651;SDS011;9974;52.146;14.668;2022-07-29T08:11:51;4.60;;;2.00;;
19651;SDS011;9974;52.146;14.668;2022-07-29T08:14:17;12.98;;;2.03;;
19651;SDS011;9974;52.146;14.668;2022-07-29T08:16:43;4.18;;;2.00;;
19651;SDS011;9974;52.146;14.668;2022-07-29T08:19:09;4.38;;;2.13;;
19651;SDS011;9974;52.146;14.668;2022-07-29T08:21:35;8.07;;;2.20;;
19651;SDS011;9974;52.146;14.668;2022-07-29T08:24:02;9.57;;;2.30;;
19651;SDS011;9974;52.146;14.668;2022-07-29T08:26:47;7.15;;;2.33;;
19651;SDS011;9974;52.146;14.668;2022-07-29T08:29:13;3.88;;;1.98;;
19651;SDS011;9974;52.146;14.668;2022-07-29T08:31:39;5.63;;;2.00;;
19651;SDS011;9974;52.146;14.668;2022-07-29T08:34:05;7.47;;;2.13;;
19651;SDS011;9974;52.146;14.668;2022-07-29T08:36:31;4.63;;;1.80;;
19651;SDS011;9974;52.146;14.668;2022-07-29T08:38:58;5.53;;;1.90;;
19651;SDS011;9974;52.146;14.668;2022-07-29T08:41:25;6.05;;;2.25;;
19651;SDS011;9974;52.146;14.668;2022-07-29T08:43:51;14.57;;;2.28;;
19651;SDS011;9974;52.146;14.668;2022-07-29T08:46:17;5.50;;;2.03;;
19651;SDS011;9974;52.146;14.668;2022-07-29T08:48:44;5.43;;;2.25;;
19651;SDS011;9974;52.146;14.668;2022-07-29T08:51:14;7.72;;;2.45;;
19651;SDS011;9974;52.146;14.668;2022-07-29T08:53:45;8.23;;;2.22;;
19651;SDS011;9974;52.146;14.668;2022-07-29T08:56:13;6.38;;;2.53;;
19651;SDS011;9974;52.146;14.668;2022-07-29T08:58:43;9.35;;;2.50;;
19651;SDS011;9974;52.146;14.668;2022-07-29T09:01:12;11.55;;;2.35;;
19651;SDS011;9974;52.146;14.668;2022-07-29T09:03:42;4.72;;;2.00;;
19651;SDS011;9974;52.146;14.668;2022-07-29T09:06:11;10.13;;;2.67;;
19651;SDS011;9974;52.146;14.668;2022-07-29T09:08:39;8.98;;;2.72;;
19651;SDS011;9974;52.146;14.668;2022-07-29T09:11:06;4.55;;;2.40;;
19651;SDS011;9974;52.146;14.668;2022-07-29T09:13:32;6.65;;;2.13;;
19651;SDS011;9974;52.146;14.668;2022-07-29T09:15:58;5.35;;;2.20;;
19651;SDS011;9974;52.146;14.668;2022-07-29T09:18:40;7.78;;;2.42;;
19651;SDS011;9974;52.146;14.668;2022-07-29T09:21:09;5.72;;;2.38;;
19651;SDS011;9974;52.146;14.668;2022-07-29T09:24:13;5.15;;;2.30;;
19651;SDS011;9974;52.146;14.668;2022-07-29T09:26:40;4.95;;;2.50;;
19651;SDS011;9974;52.146;14.668;2022-07-29T09:29:11;3.75;;;2.22;;
19651;SDS011;9974;52.146;14.668;2022-07-29T09:31:39;7.70;;;2.85;;
19651;SDS011;9974;52.146;14.668;2022-07-29T09:34:07;6.22;;;2.40;;
19651;SDS011;9974;52.146;14.668;2022-07-29T09:36:41;5.88;;;2.65;;
19651;SDS011;9974;52.146;14.668;2022-07-29T09:39:13;4.03;;;2.33;;
19651;SDS011;9974;52.146;14.668;2022-07-29T09:41:44;8.43;;;2.83;;
19651;SDS011;9974;52.146;14.668;2022-07-29T09:44:17;8.57;;;2.92;;
19651;SDS011;9974;52.146;14.668;2022-07-29T09:47:00;6.68;;;2.50;;
19651;SDS011;9974;52.146;14.668;2022-07-29T09:49:35;20.10;;;6.25;;
19651;SDS011;9974;52.146;14.668;2022-07-29T09:52:15;20.65;;;4.40;;
19651;SDS011;9974;52.146;14.668;2022-07-29T09:54:41;7.93;;;3.40;;
19651;SDS011;9974;52.146;14.668;2022-07-29T09:57:07;11.80;;;3.15;;
19651;SDS011;9974;52.146;14.668;2022-07-29T09:59:37;4.20;;;2.17;;
19651;SDS011;9974;52.146;14.668;2022-07-29T10:02:13;4.40;;;2.22;;
19651;SDS011;9974;52.146;14.668;2022-07-29T10:04:40;27.17;;;3.10;;
19651;SDS011;9974;52.146;14.668;2022-07-29T10:07:07;9.55;;;2.80;;
19651;SDS011;9974;52.146;14.668;2022-07-29T10:09:33;7.10;;;2.88;;
19651;SDS011;9974;52.146;14.668;2022-07-29T10:12:06;6.10;;;2.40;;
19651;SDS011;9974;52.146;14.668;2022-07-29T10:14:39;4.68;;;2.05;;
19651;SDS011;9974;52.146;14.668;2022-07-29T10:17:06;5.18;;;2.50;;
19651;SDS011;9974;52.146;14.668;2022-07-29T10:19:35;7.88;;;2.17;;
19651;SDS011;9974;52.146;14.668;2022-07-29T10:22:03;7.72;;;2.95;;
19651;SDS011;9974;52.146;14.668;2022-07-29T10:24:33;5.28;;;2.63;;
19651;SDS011;9974;52.146;14.668;2022-07-29T10:27:00;4.45;;;2.00;;
19651;SDS011;9974;52.146;14.668;2022-07-29T10:29:29;6.65;;;1.98;;
19651;SDS011;9974;52.146;14.668;2022-07-29T10:34:57;9.80;;;2.20;;
19651;SDS011;9974;52.146;14.668;2022-07-29T10:38:02;6.22;;;2.50;;
19651;SDS011;9974;52.146;14.668;2022-07-29T10:43:56;6.07;;;2.63;;
19651;SDS011;9974;52.146;14.668;2022-07-29T10:46:27;6.47;;;2.17;;
19651;SDS011;9974;52.146;14.668;2022-07-29T10:49:10;4.80;;;2.47;;
19651;SDS011;9974;52.146;14.668;2022-07-29T10:57:17;5.95;;;2.22;;
19651;SDS011;9974;52.146;14.668;2022-07-29T11:10:34;3.63;;;2.17;;
19651;SDS011;9974;52.146;14.668;2022-07-29T11:13:00;6.32;;;2.10;;
19651;SDS011;9974;52.146;14.668;2022-07-29T11:15:26;7.97;;;2.05;;
19651;SDS011;9974;52.146;14.668;2022-07-29T11:23:20;4.50;;;1.88;;
19651;SDS011;9974;52.146;14.668;2022-07-29T11:28:51;5.50;;;2.58;;
19651;SDS011;9974;52.146;14.668;2022-07-29T11:31:31;6.00;;;2.60;;
19651;SDS011;9974;52.146;14.668;2022-07-29T11:34:21;4.85;;;2.33;;
19651;SDS011;9974;52.146;14.668;2022-07-29T11:39:35;6.15;;;2.25;;
19651;SDS011;9974;52.146;14.668;2022-07-29T11:44:59;2.80;;;2.08;;
19651;SDS011;9974;52.146;14.668;2022-07-29T11:50:14;6.60;;;1.92;;
19651;SDS011;9974;52.146;14.668;2022-07-29T11:52:44;4.70;;;2.08;;
19651;SDS011;9974;52.146;14.668;2022-07-29T11:55:13;15.07;;;1.90;;
19651;SDS011;9974;52.146;14.668;2022-07-29T11:57:51;3.97;;;1.88;;
19651;SDS011;9974;52.146;14.668;2022-07-29T12:00:29;6.18;;;1.85;;
19651;SDS011;9974;52.146;14.668;2022-07-29T12:03:11;4.25;;;1.98;;
19651;SDS011;9974;52.146;14.668;2022-07-29T12:05:48;11.82;;;2.15;;
19651;SDS011;9974;52.146;14.668;2022-07-29T12:08:18;2.50;;;1.27;;
19651;SDS011;9974;52.146;14.668;2022-07-29T12:10:47;11.70;;;1.80;;
19651;SDS011;9974;52.146;14.668;2022-07-29T12:13:15;3.65;;;1.90;;
19651;SDS011;9974;52.146;14.668;2022-07-29T12:15:53;2.78;;;1.50;;
19651;SDS011;9974;52.146;14.668;2022-07-29T12:18:25;7.25;;;2.10;;
19651;SDS011;9974;52.146;14.668;2022-07-29T12:21:01;3.35;;;2.00;;
19651;SDS011;9974;52.146;14.668;2022-07-29T12:23:28;5.70;;;2.20;;
19651;SDS011;9974;52.146;14.668;2022-07-29T12:25:55;7.43;;;2.00;;
19651;SDS011;9974;52.146;14.668;2022-07-29T12:28:23;4.22;;;1.83;;
19651;SDS011;9974;52.146;14.668;2022-07-29T12:30:49;6.50;;;2.28;;
19651;SDS011;9974;52.146;14.668;2022-07-29T12:33:20;6.55;;;2.15;;
19651;SDS011;9974;52.146;14.668;2022-07-29T12:35:49;4.13;;;1.77;;
19651;SDS011;9974;52.146;14.668;2022-07-29T12:38:18;7.53;;;1.60;;
19651;SDS011;9974;52.146;14.668;2022-07-29T12:40:45;7.22;;;2.17;;
19651;SDS011;9974;52.146;14.668;2022-07-29T12:43:14;8.75;;;2.17;;
19651;SDS011;9974;52.146;14.668;2022-07-29T12:45:51;6.57;;;1.85;;
19651;SDS011;9974;52.146;14.668;2022-07-29T12:48:34;3.45;;;1.40;;
19651;SDS011;9974;52.146;14.668;2022-07-29T12:51:10;6.85;;;1.80;;
19651;SDS011;9974;52.146;14.668;2022-07-29T12:53:39;7.05;;;1.85;;
19651;SDS011;9974;52.146;14.668;2022-07-29T12:56:05;5.57;;;1.90;;
19651;SDS011;9974;52.146;14.668;2022-07-29T12:58:32;3.78;;;1.83;;
19651;SDS011;9974;52.146;14.668;2022-07-29T13:01:13;4.68;;;1.77;;
19651;SDS011;9974;52.146;14.668;2022-07-29T13:11:43;2.60;;;1.60;;
19651;SDS011;9974;52.146;14.668;2022-07-29T13:17:06;4.10;;;1.83;;
19651;SDS011;9974;52.146;14.668;2022-07-29T13:19:48;3.45;;;1.80;;
19651;SDS011;9974;52.146;14.668;2022-07-29T13:22:30;2.30;;;1.30;;
19651;SDS011;9974;52.146;14.668;2022-07-29T13:24:56;5.70;;;1.70;;
19651;SDS011;9974;52.146;14.668;2022-07-29T13:27:27;6.65;;;1.40;;
19651;SDS011;9974;52.146;14.668;2022-07-29T13:29:56;4.68;;;2.08;;
19651;SDS011;9974;52.146;14.668;2022-07-29T13:32:25;6.05;;;1.38;;
19651;SDS011;9974;52.146;14.668;2022-07-29T13:34:52;2.80;;;1.83;;
19651;SDS011;9974;52.146;14.668;2022-07-29T13:37:18;3.20;;;1.50;;
19651;SDS011;9974;52.146;14.668;2022-07-29T13:39:44;9.82;;;1.80;;
19651;SDS011;9974;52.146;14.668;2022-07-29T13:42:10;4.80;;;1.73;;
19651;SDS011;9974;52.146;14.668;2022-07-29T13:44:39;6.53;;;1.77;;
19651;SDS011;9974;52.146;14.668;2022-07-29T13:47:07;5.13;;;1.40;;
19651;SDS011;9974;52.146;14.668;2022-07-29T13:49:33;6.47;;;2.33;;
19651;SDS011;9974;52.146;14.668;2022-07-29T13:51:59;3.03;;;1.80;;
19651;SDS011;9974;52.146;14.668;2022-07-29T13:54:25;3.47;;;1.80;;
19651;SDS011;9974;52.146;14.668;2022-07-29T13:56:51;3.92;;;1.83;;
19651;SDS011;9974;52.146;14.668;2022-07-29T13:59:18;4.80;;;2.00;;
19651;SDS011;9974;52.146;14.668;2022-07-29T14:01:44;4.03;;;1.92;;
19651;SDS011;9974;52.146;14.668;2022-07-29T14:04:10;3.35;;;2.05;;
19651;SDS011;9974;52.146;14.668;2022-07-29T14:06:36;4.32;;;2.00;;
19651;SDS011;9974;52.146;14.668;2022-07-29T14:09:03;3.80;;;1.70;;
19651;SDS011;9974;52.146;14.668;2022-07-29T14:11:35;8.20;;;1.52;;
19651;SDS011;9974;52.146;14.668;2022-07-29T14:14:03;7.43;;;2.53;;
19651;SDS011;9974;52.146;14.668;2022-07-29T14:16:29;7.63;;;1.80;;
19651;SDS011;9974;52.146;14.668;2022-07-29T14:18:55;6.25;;;1.85;;
19651;SDS011;9974;52.146;14.668;2022-07-29T14:21:21;3.97;;;1.52;;
19651;SDS011;9974;52.146;14.668;2022-07-29T14:23:47;2.55;;;1.52;;
19651;SDS011;9974;52.146;14.668;2022-07-29T14:26:13;5.45;;;2.00;;
19651;SDS011;9974;52.146;14.668;2022-07-29T14:28:39;4.35;;;1.88;;
19651;SDS011;9974;52.146;14.668;2022-07-29T14:31:05;7.78;;;2.22;;
19651;SDS011;9974;52.146;14.668;2022-07-29T14:33:31;6.03;;;2.00;;
19651;SDS011;9974;52.146;14.668;2022-07-29T14:35:57;4.22;;;1.65;;
19651;SDS011;9974;52.146;14.668;2022-07-29T14:38:23;2.95;;;1.63;;
19651;SDS011;9974;52.146;14.668;2022-07-29T14:40:49;4.13;;;1.50;;
19651;SDS011;9974;52.146;14.668;2022-07-29T14:43:15;5.55;;;2.05;;
19651;SDS011;9974;52.146;14.668;2022-07-29T14:45:41;9.40;;;1.90;;
19651;SDS011;9974;52.146;14.668;2022-07-29T14:48:06;8.93;;;1.50;;
19651;SDS011;9974;52.146;14.668;2022-07-29T14:50:32;7.57;;;1.98;;
19651;SDS011;9974;52.146;14.668;2022-07-29T14:52:59;10.07;;;1.70;;
19651;SDS011;9974;52.146;14.668;2022-07-29T14:55:25;2.90;;;1.23;;
19651;SDS011;9974;52.146;14.668;2022-07-29T14:57:51;5.22;;;1.70;;
19651;SDS011;9974;52.146;14.668;2022-07-29T15:00:17;3.65;;;1.55;;
19651;SDS011;9974;52.146;14.668;2022-07-29T15:02:43;4.20;;;1.83;;
19651;SDS011;9974;52.146;14.668;2022-07-29T15:05:09;5.00;;;2.05;;
19651;SDS011;9974;52.146;14.668;2022-07-29T15:07:35;7.03;;;1.90;;
19651;SDS011;9974;52.146;14.668;2022-07-29T15:10:02;4.75;;;1.70;;
19651;SDS011;9974;52.146;14.668;2022-07-29T15:12:29;3.75;;;1.50;;
19651;SDS011;9974;52.146;14.668;2022-07-29T15:14:55;4.35;;;1.65;;
19651;SDS011;9974;52.146;14.668;2022-07-29T15:17:21;11.45;;;1.83;;
19651;SDS011;9974;52.146;14.668;2022-07-29T15:19:47;5.07;;;1.42;;
19651;SDS011;9974;52.146;14.668;2022-07-29T15:22:13;5.45;;;1.75;;
19651;SDS011;9974;52.146;14.668;2022-07-29T15:24:38;3.78;;;2.30;;
19651;SDS011;9974;52.146;14.668;2022-07-29T15:27:04;5.90;;;1.88;;
19651;SDS011;9974;52.146;14.668;2022-07-29T15:29:30;3.70;;;1.70;;
19651;SDS011;9974;52.146;14.668;2022-07-29T15:31:57;10.48;;;1.95;;
19651;SDS011;9974;52.146;14.668;2022-07-29T15:34:23;6.05;;;1.42;;
19651;SDS011;9974;52.146;14.668;2022-07-29T15:36:52;4.55;;;1.70;;
19651;SDS011;9974;52.146;14.668;2022-07-29T15:39:18;2.92;;;1.70;;
19651;SDS011;9974;52.146;14.668;2022-07-29T15:41:45;3.28;;;1.60;;
19651;SDS011;9974;52.146;14.668;2022-07-29T15:44:11;2.97;;;1.60;;
19651;SDS011;9974;52.146;14.668;2022-07-29T15:46:37;5.07;;;1.67;;